sensor_id;sensor_type;location;lat;lon;timestamp;P1;durP1;ratioP1;P2;durP2;ratioP2
75793;SDS011;64418;47.536;19.074;2022-10-26T00:01:08;5.37;;;2.50;;
75793;SDS011;64418;47.536;19.074;2022-10-26T00:03:57;5.75;;;2.83;;
75793;SDS011;64418;47.536;19.074;2022-10-26T00:06:41;4.72;;;2.47;;
75793;SDS011;64418;47.536;19.074;2022-10-26T00:09:28;7.57;;;3.00;;
75793;SDS011;64418;47.536;19.074;2022-10-26T00:12:13;6.82;;;2.85;;
75793;SDS011;64418;47.536;19.074;2022-10-26T00:14:57;6.68;;;2.83;;
75793;SDS011;64418;47.536;19.074;2022-10-26T00:17:43;6.40;;;2.87;;
75793;SDS011;64418;47.536;19.074;2022-10-26T00:20:27;5.12;;;2.30;;
75793;SDS011;64418;47.536;19.074;2022-10-26T00:23:11;7.27;;;2.73;;
75793;SDS011;64418;47.536;19.074;2022-10-26T00:25:56;7.47;;;2.78;;
75793;SDS011;64418;47.536;19.074;2022-10-26T00:28:41;8.32;;;3.25;;
75793;SDS011;64418;47.536;19.074;2022-10-26T00:31:26;6.80;;;2.60;;
75793;SDS011;64418;47.536;19.074;2022-10-26T00:34:11;5.40;;;2.80;;
75793;SDS011;64418;47.536;19.074;2022-10-26T00:36:59;5.27;;;2.90;;
75793;SDS011;64418;47.536;19.074;2022-10-26T00:39:43;6.30;;;2.80;;
75793;SDS011;64418;47.536;19.074;2022-10-26T00:42:27;7.55;;;3.20;;
75793;SDS011;64418;47.536;19.074;2022-10-26T00:45:18;8.98;;;3.50;;
75793;SDS011;64418;47.536;19.074;2022-10-26T00:48:04;6.95;;;3.28;;
75793;SDS011;64418;47.536;19.074;2022-10-26T00:50:52;7.00;;;3.42;;
75793;SDS011;64418;47.536;19.074;2022-10-26T00:53:37;5.77;;;3.20;;
75793;SDS011;64418;47.536;19.074;2022-10-26T00:56:21;6.93;;;2.85;;
75793;SDS011;64418;47.536;19.074;2022-10-26T00:59:07;6.62;;;3.05;;
75793;SDS011;64418;47.536;19.074;2022-10-26T01:01:54;10.30;;;3.12;;
75793;SDS011;64418;47.536;19.074;2022-10-26T01:04:38;6.50;;;3.42;;
75793;SDS011;64418;47.536;19.074;2022-10-26T01:07:24;6.63;;;3.10;;
75793;SDS011;64418;47.536;19.074;2022-10-26T01:10:10;7.95;;;2.97;;
75793;SDS011;64418;47.536;19.074;2022-10-26T01:12:54;6.80;;;3.42;;
75793;SDS011;64418;47.536;19.074;2022-10-26T01:15:47;5.30;;;3.62;;
75793;SDS011;64418;47.536;19.074;2022-10-26T01:18:44;7.65;;;3.50;;
75793;SDS011;64418;47.536;19.074;2022-10-26T01:21:42;8.03;;;4.27;;
75793;SDS011;64418;47.536;19.074;2022-10-26T01:24:43;8.20;;;4.20;;
75793;SDS011;64418;47.536;19.074;2022-10-26T01:27:37;6.93;;;3.97;;
75793;SDS011;64418;47.536;19.074;2022-10-26T01:30:33;9.90;;;3.97;;
75793;SDS011;64418;47.536;19.074;2022-10-26T01:33:23;8.48;;;4.10;;
75793;SDS011;64418;47.536;19.074;2022-10-26T01:36:19;6.80;;;4.00;;
75793;SDS011;64418;47.536;19.074;2022-10-26T01:39:12;7.77;;;4.00;;
75793;SDS011;64418;47.536;19.074;2022-10-26T01:42:04;5.93;;;4.28;;
75793;SDS011;64418;47.536;19.074;2022-10-26T01:44:52;10.38;;;4.30;;
75793;SDS011;64418;47.536;19.074;2022-10-26T01:47:43;9.95;;;4.30;;
75793;SDS011;64418;47.536;19.074;2022-10-26T01:50:30;8.10;;;4.40;;
75793;SDS011;64418;47.536;19.074;2022-10-26T01:53:15;8.37;;;4.43;;
75793;SDS011;64418;47.536;19.074;2022-10-26T01:55:59;7.20;;;4.10;;
75793;SDS011;64418;47.536;19.074;2022-10-26T01:58:54;7.15;;;4.18;;
75793;SDS011;64418;47.536;19.074;2022-10-26T02:01:50;8.25;;;4.10;;
75793;SDS011;64418;47.536;19.074;2022-10-26T02:05:09;6.82;;;4.00;;
75793;SDS011;64418;47.536;19.074;2022-10-26T02:08:13;8.43;;;3.90;;
75793;SDS011;64418;47.536;19.074;2022-10-26T02:11:08;8.75;;;4.32;;
75793;SDS011;64418;47.536;19.074;2022-10-26T02:14:00;8.13;;;3.97;;
75793;SDS011;64418;47.536;19.074;2022-10-26T02:16:55;7.55;;;3.83;;
75793;SDS011;64418;47.536;19.074;2022-10-26T02:19:41;6.40;;;3.40;;
75793;SDS011;64418;47.536;19.074;2022-10-26T02:22:32;5.73;;;3.83;;
75793;SDS011;64418;47.536;19.074;2022-10-26T02:25:21;7.25;;;3.87;;
75793;SDS011;64418;47.536;19.074;2022-10-26T02:28:11;8.90;;;3.92;;
75793;SDS011;64418;47.536;19.074;2022-10-26T02:30:59;5.87;;;3.90;;
75793;SDS011;64418;47.536;19.074;2022-10-26T02:33:46;8.13;;;4.22;;
75793;SDS011;64418;47.536;19.074;2022-10-26T02:36:33;6.87;;;3.87;;
75793;SDS011;64418;47.536;19.074;2022-10-26T02:39:23;5.78;;;3.62;;
75793;SDS011;64418;47.536;19.074;2022-10-26T02:42:15;9.43;;;4.72;;
75793;SDS011;64418;47.536;19.074;2022-10-26T02:45:02;12.00;;;4.28;;
75793;SDS011;64418;47.536;19.074;2022-10-26T02:47:50;8.13;;;4.30;;
75793;SDS011;64418;47.536;19.074;2022-10-26T02:50:37;7.90;;;4.30;;
75793;SDS011;64418;47.536;19.074;2022-10-26T02:53:30;6.03;;;4.07;;
75793;SDS011;64418;47.536;19.074;2022-10-26T02:56:21;11.25;;;4.72;;
75793;SDS011;64418;47.536;19.074;2022-10-26T02:59:09;11.27;;;5.00;;
75793;SDS011;64418;47.536;19.074;2022-10-26T03:01:55;7.57;;;4.40;;
75793;SDS011;64418;47.536;19.074;2022-10-26T03:04:40;10.63;;;4.60;;
75793;SDS011;64418;47.536;19.074;2022-10-26T03:07:25;6.97;;;4.43;;
75793;SDS011;64418;47.536;19.074;2022-10-26T03:10:09;8.38;;;4.30;;
75793;SDS011;64418;47.536;19.074;2022-10-26T03:12:56;9.05;;;4.50;;
75793;SDS011;64418;47.536;19.074;2022-10-26T03:15:40;8.07;;;4.57;;
75793;SDS011;64418;47.536;19.074;2022-10-26T03:18:24;9.00;;;4.60;;
75793;SDS011;64418;47.536;19.074;2022-10-26T03:21:08;8.27;;;4.53;;
75793;SDS011;64418;47.536;19.074;2022-10-26T03:23:53;10.48;;;5.00;;
75793;SDS011;64418;47.536;19.074;2022-10-26T03:26:37;16.75;;;5.20;;
75793;SDS011;64418;47.536;19.074;2022-10-26T03:29:23;7.65;;;4.55;;
75793;SDS011;64418;47.536;19.074;2022-10-26T03:32:07;8.63;;;4.55;;
75793;SDS011;64418;47.536;19.074;2022-10-26T03:34:55;11.63;;;5.83;;
75793;SDS011;64418;47.536;19.074;2022-10-26T03:37:39;9.52;;;5.75;;
75793;SDS011;64418;47.536;19.074;2022-10-26T03:40:24;9.63;;;5.60;;
75793;SDS011;64418;47.536;19.074;2022-10-26T03:43:08;9.05;;;5.62;;
75793;SDS011;64418;47.536;19.074;2022-10-26T03:45:53;13.18;;;6.35;;
75793;SDS011;64418;47.536;19.074;2022-10-26T03:48:37;10.40;;;5.97;;
75793;SDS011;64418;47.536;19.074;2022-10-26T03:51:22;10.38;;;5.80;;
75793;SDS011;64418;47.536;19.074;2022-10-26T03:54:06;9.10;;;5.40;;
75793;SDS011;64418;47.536;19.074;2022-10-26T03:56:51;12.35;;;5.90;;
75793;SDS011;64418;47.536;19.074;2022-10-26T03:59:35;10.20;;;5.43;;
75793;SDS011;64418;47.536;19.074;2022-10-26T04:02:20;9.87;;;5.70;;
75793;SDS011;64418;47.536;19.074;2022-10-26T04:05:06;11.88;;;6.05;;
75793;SDS011;64418;47.536;19.074;2022-10-26T04:07:51;14.30;;;6.60;;
75793;SDS011;64418;47.536;19.074;2022-10-26T04:10:36;11.10;;;5.53;;
75793;SDS011;64418;47.536;19.074;2022-10-26T04:13:21;16.40;;;6.82;;
75793;SDS011;64418;47.536;19.074;2022-10-26T04:16:05;12.43;;;6.33;;
75793;SDS011;64418;47.536;19.074;2022-10-26T04:18:54;11.85;;;6.32;;
75793;SDS011;64418;47.536;19.074;2022-10-26T04:21:39;11.15;;;5.95;;
75793;SDS011;64418;47.536;19.074;2022-10-26T04:24:23;12.23;;;6.10;;
75793;SDS011;64418;47.536;19.074;2022-10-26T04:27:07;11.27;;;6.32;;
75793;SDS011;64418;47.536;19.074;2022-10-26T04:29:51;16.93;;;6.40;;
75793;SDS011;64418;47.536;19.074;2022-10-26T04:32:35;13.48;;;6.90;;
75793;SDS011;64418;47.536;19.074;2022-10-26T04:35:21;14.63;;;6.65;;
75793;SDS011;64418;47.536;19.074;2022-10-26T04:38:05;9.30;;;5.55;;
75793;SDS011;64418;47.536;19.074;2022-10-26T04:40:50;13.23;;;6.50;;
75793;SDS011;64418;47.536;19.074;2022-10-26T04:43:34;12.17;;;6.20;;
75793;SDS011;64418;47.536;19.074;2022-10-26T04:46:19;12.20;;;6.28;;
75793;SDS011;64418;47.536;19.074;2022-10-26T04:49:03;9.98;;;6.00;;
75793;SDS011;64418;47.536;19.074;2022-10-26T04:51:52;14.82;;;6.60;;
75793;SDS011;64418;47.536;19.074;2022-10-26T04:54:36;14.98;;;6.80;;
75793;SDS011;64418;47.536;19.074;2022-10-26T04:57:22;13.43;;;7.27;;
75793;SDS011;64418;47.536;19.074;2022-10-26T05:00:07;17.05;;;7.72;;
75793;SDS011;64418;47.536;19.074;2022-10-26T05:02:57;12.10;;;6.70;;
75793;SDS011;64418;47.536;19.074;2022-10-26T05:05:42;15.05;;;7.65;;
75793;SDS011;64418;47.536;19.074;2022-10-26T05:08:32;13.18;;;7.82;;
75793;SDS011;64418;47.536;19.074;2022-10-26T05:11:20;15.57;;;8.23;;
75793;SDS011;64418;47.536;19.074;2022-10-26T05:14:05;16.10;;;8.45;;
75793;SDS011;64418;47.536;19.074;2022-10-26T05:16:50;20.50;;;8.55;;
75793;SDS011;64418;47.536;19.074;2022-10-26T05:19:35;17.48;;;8.30;;
75793;SDS011;64418;47.536;19.074;2022-10-26T05:22:19;15.60;;;8.30;;
75793;SDS011;64418;47.536;19.074;2022-10-26T05:25:06;16.10;;;8.87;;
75793;SDS011;64418;47.536;19.074;2022-10-26T05:27:51;16.23;;;8.85;;
75793;SDS011;64418;47.536;19.074;2022-10-26T05:30:35;19.85;;;9.68;;
75793;SDS011;64418;47.536;19.074;2022-10-26T05:33:20;16.02;;;9.63;;
75793;SDS011;64418;47.536;19.074;2022-10-26T05:36:05;15.02;;;8.32;;
75793;SDS011;64418;47.536;19.074;2022-10-26T05:38:50;13.17;;;8.03;;
75793;SDS011;64418;47.536;19.074;2022-10-26T05:41:36;22.60;;;10.13;;
75793;SDS011;64418;47.536;19.074;2022-10-26T05:44:24;22.83;;;10.38;;
75793;SDS011;64418;47.536;19.074;2022-10-26T05:47:11;21.35;;;9.88;;
75793;SDS011;64418;47.536;19.074;2022-10-26T05:49:56;23.98;;;10.88;;
75793;SDS011;64418;47.536;19.074;2022-10-26T05:52:41;21.23;;;10.07;;
75793;SDS011;64418;47.536;19.074;2022-10-26T05:55:27;19.67;;;10.18;;
75793;SDS011;64418;47.536;19.074;2022-10-26T05:58:13;29.67;;;10.15;;
75793;SDS011;64418;47.536;19.074;2022-10-26T06:01:02;26.50;;;10.25;;
75793;SDS011;64418;47.536;19.074;2022-10-26T06:03:59;26.87;;;10.75;;
75793;SDS011;64418;47.536;19.074;2022-10-26T06:06:54;21.03;;;9.20;;
75793;SDS011;64418;47.536;19.074;2022-10-26T06:09:43;17.98;;;9.15;;
75793;SDS011;64418;47.536;19.074;2022-10-26T06:12:29;20.08;;;9.77;;
75793;SDS011;64418;47.536;19.074;2022-10-26T06:15:24;19.10;;;9.18;;
75793;SDS011;64418;47.536;19.074;2022-10-26T06:18:11;17.27;;;9.18;;
75793;SDS011;64418;47.536;19.074;2022-10-26T06:21:09;19.90;;;10.27;;
75793;SDS011;64418;47.536;19.074;2022-10-26T06:24:07;16.45;;;10.40;;
75793;SDS011;64418;47.536;19.074;2022-10-26T06:26:57;20.55;;;9.82;;
75793;SDS011;64418;47.536;19.074;2022-10-26T06:29:49;20.60;;;10.55;;
75793;SDS011;64418;47.536;19.074;2022-10-26T06:32:44;20.05;;;10.43;;
75793;SDS011;64418;47.536;19.074;2022-10-26T06:35:31;17.30;;;9.97;;
75793;SDS011;64418;47.536;19.074;2022-10-26T06:38:20;19.58;;;9.85;;
75793;SDS011;64418;47.536;19.074;2022-10-26T06:41:07;23.92;;;10.43;;
75793;SDS011;64418;47.536;19.074;2022-10-26T06:43:53;20.90;;;10.88;;
75793;SDS011;64418;47.536;19.074;2022-10-26T06:59:03;14.63;;;9.93;;
75793;SDS011;64418;47.536;19.074;2022-10-26T07:01:52;15.10;;;9.38;;
75793;SDS011;64418;47.536;19.074;2022-10-26T07:04:36;17.45;;;9.10;;
75793;SDS011;64418;47.536;19.074;2022-10-26T07:07:20;16.73;;;8.60;;
75793;SDS011;64418;47.536;19.074;2022-10-26T07:10:08;18.83;;;9.98;;
75793;SDS011;64418;47.536;19.074;2022-10-26T07:12:52;16.70;;;9.50;;
75793;SDS011;64418;47.536;19.074;2022-10-26T07:15:41;23.65;;;11.07;;
75793;SDS011;64418;47.536;19.074;2022-10-26T07:18:26;16.10;;;9.68;;
75793;SDS011;64418;47.536;19.074;2022-10-26T07:21:13;16.77;;;9.77;;
75793;SDS011;64418;47.536;19.074;2022-10-26T07:23:58;19.48;;;10.43;;
75793;SDS011;64418;47.536;19.074;2022-10-26T07:26:42;14.77;;;9.47;;
75793;SDS011;64418;47.536;19.074;2022-10-26T07:29:26;21.63;;;9.57;;
75793;SDS011;64418;47.536;19.074;2022-10-26T07:32:12;19.83;;;10.18;;
75793;SDS011;64418;47.536;19.074;2022-10-26T07:34:56;24.95;;;12.25;;
75793;SDS011;64418;47.536;19.074;2022-10-26T07:37:40;13.93;;;8.57;;
75793;SDS011;64418;47.536;19.074;2022-10-26T07:40:25;21.37;;;10.13;;
75793;SDS011;64418;47.536;19.074;2022-10-26T07:43:13;16.97;;;10.53;;
75793;SDS011;64418;47.536;19.074;2022-10-26T07:45:58;21.65;;;10.70;;
75793;SDS011;64418;47.536;19.074;2022-10-26T07:48:44;17.12;;;11.38;;
75793;SDS011;64418;47.536;19.074;2022-10-26T07:51:29;18.50;;;11.30;;
75793;SDS011;64418;47.536;19.074;2022-10-26T07:54:14;22.23;;;11.77;;
75793;SDS011;64418;47.536;19.074;2022-10-26T07:56:58;15.43;;;10.07;;
75793;SDS011;64418;47.536;19.074;2022-10-26T07:59:42;20.27;;;10.83;;
75793;SDS011;64418;47.536;19.074;2022-10-26T08:02:30;21.65;;;11.40;;
75793;SDS011;64418;47.536;19.074;2022-10-26T08:05:16;15.27;;;10.57;;
75793;SDS011;64418;47.536;19.074;2022-10-26T08:08:03;22.85;;;11.52;;
75793;SDS011;64418;47.536;19.074;2022-10-26T08:10:48;15.45;;;10.32;;
75793;SDS011;64418;47.536;19.074;2022-10-26T08:13:33;14.87;;;9.83;;
75793;SDS011;64418;47.536;19.074;2022-10-26T08:16:18;17.55;;;10.48;;
75793;SDS011;64418;47.536;19.074;2022-10-26T08:19:03;15.73;;;9.77;;
75793;SDS011;64418;47.536;19.074;2022-10-26T08:21:49;16.62;;;9.70;;
75793;SDS011;64418;47.536;19.074;2022-10-26T08:24:33;16.52;;;9.68;;
75793;SDS011;64418;47.536;19.074;2022-10-26T08:27:20;17.80;;;9.13;;
75793;SDS011;64418;47.536;19.074;2022-10-26T08:30:07;13.37;;;7.83;;
75793;SDS011;64418;47.536;19.074;2022-10-26T08:32:56;12.70;;;8.90;;
75793;SDS011;64418;47.536;19.074;2022-10-26T08:35:42;15.38;;;8.93;;
75793;SDS011;64418;47.536;19.074;2022-10-26T08:38:30;12.13;;;8.35;;
75793;SDS011;64418;47.536;19.074;2022-10-26T08:41:15;14.57;;;9.43;;
75793;SDS011;64418;47.536;19.074;2022-10-26T08:44:05;14.23;;;9.43;;
75793;SDS011;64418;47.536;19.074;2022-10-26T08:47:02;13.60;;;8.93;;
75793;SDS011;64418;47.536;19.074;2022-10-26T08:49:51;12.75;;;8.43;;
75793;SDS011;64418;47.536;19.074;2022-10-26T08:52:42;14.23;;;9.18;;
75793;SDS011;64418;47.536;19.074;2022-10-26T08:55:38;16.00;;;8.15;;
75793;SDS011;64418;47.536;19.074;2022-10-26T08:58:31;14.43;;;8.33;;
75793;SDS011;64418;47.536;19.074;2022-10-26T09:01:25;13.10;;;8.03;;
75793;SDS011;64418;47.536;19.074;2022-10-26T09:04:10;13.18;;;7.82;;
75793;SDS011;64418;47.536;19.074;2022-10-26T09:07:00;11.90;;;8.32;;
75793;SDS011;64418;47.536;19.074;2022-10-26T09:09:54;11.80;;;7.72;;
75793;SDS011;64418;47.536;19.074;2022-10-26T09:12:50;15.20;;;8.85;;
75793;SDS011;64418;47.536;19.074;2022-10-26T09:15:46;13.40;;;8.23;;
75793;SDS011;64418;47.536;19.074;2022-10-26T09:18:42;11.77;;;7.70;;
75793;SDS011;64418;47.536;19.074;2022-10-26T09:21:37;14.87;;;8.30;;
75793;SDS011;64418;47.536;19.074;2022-10-26T09:24:27;16.37;;;8.40;;
75793;SDS011;64418;47.536;19.074;2022-10-26T09:27:17;16.05;;;8.85;;
75793;SDS011;64418;47.536;19.074;2022-10-26T09:30:13;14.20;;;8.38;;
75793;SDS011;64418;47.536;19.074;2022-10-26T09:33:01;13.80;;;8.47;;
75793;SDS011;64418;47.536;19.074;2022-10-26T09:35:54;13.95;;;8.23;;
75793;SDS011;64418;47.536;19.074;2022-10-26T09:38:46;14.18;;;8.82;;
75793;SDS011;64418;47.536;19.074;2022-10-26T09:41:39;14.68;;;8.05;;
75793;SDS011;64418;47.536;19.074;2022-10-26T09:44:29;15.88;;;9.05;;
75793;SDS011;64418;47.536;19.074;2022-10-26T09:47:29;15.73;;;8.57;;
75793;SDS011;64418;47.536;19.074;2022-10-26T09:50:20;11.38;;;7.57;;
75793;SDS011;64418;47.536;19.074;2022-10-26T09:53:08;9.48;;;6.70;;
75793;SDS011;64418;47.536;19.074;2022-10-26T09:55:55;11.45;;;6.80;;
75793;SDS011;64418;47.536;19.074;2022-10-26T09:58:47;10.43;;;6.50;;
75793;SDS011;64418;47.536;19.074;2022-10-26T10:01:36;9.87;;;6.40;;
75793;SDS011;64418;47.536;19.074;2022-10-26T10:04:21;12.50;;;6.30;;
75793;SDS011;64418;47.536;19.074;2022-10-26T10:07:11;9.43;;;5.93;;
75793;SDS011;64418;47.536;19.074;2022-10-26T10:10:06;10.82;;;5.45;;
75793;SDS011;64418;47.536;19.074;2022-10-26T10:12:52;9.70;;;5.47;;
75793;SDS011;64418;47.536;19.074;2022-10-26T10:15:37;9.43;;;5.37;;
75793;SDS011;64418;47.536;19.074;2022-10-26T10:18:21;8.93;;;5.20;;
75793;SDS011;64418;47.536;19.074;2022-10-26T10:21:08;11.27;;;5.72;;
75793;SDS011;64418;47.536;19.074;2022-10-26T10:23:53;10.30;;;4.85;;
75793;SDS011;64418;47.536;19.074;2022-10-26T10:26:42;9.23;;;5.35;;
75793;SDS011;64418;47.536;19.074;2022-10-26T10:29:40;7.20;;;5.00;;
75793;SDS011;64418;47.536;19.074;2022-10-26T10:32:29;8.52;;;5.00;;
75793;SDS011;64418;47.536;19.074;2022-10-26T10:35:21;13.27;;;5.72;;
75793;SDS011;64418;47.536;19.074;2022-10-26T10:38:12;11.32;;;6.07;;
75793;SDS011;64418;47.536;19.074;2022-10-26T10:41:00;10.95;;;6.45;;
75793;SDS011;64418;47.536;19.074;2022-10-26T10:43:45;12.10;;;7.10;;
75793;SDS011;64418;47.536;19.074;2022-10-26T10:46:31;13.43;;;7.12;;
75793;SDS011;64418;47.536;19.074;2022-10-26T10:49:20;13.38;;;8.00;;
75793;SDS011;64418;47.536;19.074;2022-10-26T10:52:08;15.15;;;8.23;;
75793;SDS011;64418;47.536;19.074;2022-10-26T10:55:16;13.60;;;8.02;;
75793;SDS011;64418;47.536;19.074;2022-10-26T10:58:10;13.60;;;8.30;;
75793;SDS011;64418;47.536;19.074;2022-10-26T11:01:00;15.55;;;8.32;;
75793;SDS011;64418;47.536;19.074;2022-10-26T11:03:48;15.68;;;8.23;;
75793;SDS011;64418;47.536;19.074;2022-10-26T11:06:59;17.20;;;9.02;;
75793;SDS011;64418;47.536;19.074;2022-10-26T11:09:47;16.85;;;9.10;;
75793;SDS011;64418;47.536;19.074;2022-10-26T11:12:43;18.07;;;8.97;;
75793;SDS011;64418;47.536;19.074;2022-10-26T11:15:32;20.35;;;9.20;;
75793;SDS011;64418;47.536;19.074;2022-10-26T11:18:21;18.15;;;8.35;;
75793;SDS011;64418;47.536;19.074;2022-10-26T11:21:14;17.67;;;8.85;;
75793;SDS011;64418;47.536;19.074;2022-10-26T11:24:09;20.37;;;9.50;;
75793;SDS011;64418;47.536;19.074;2022-10-26T11:27:00;17.63;;;9.00;;
75793;SDS011;64418;47.536;19.074;2022-10-26T11:29:50;17.30;;;9.00;;
75793;SDS011;64418;47.536;19.074;2022-10-26T11:32:41;19.23;;;9.10;;
75793;SDS011;64418;47.536;19.074;2022-10-26T11:35:31;18.83;;;9.55;;
75793;SDS011;64418;47.536;19.074;2022-10-26T11:38:22;18.60;;;9.13;;
75793;SDS011;64418;47.536;19.074;2022-10-26T11:41:14;19.73;;;9.80;;
75793;SDS011;64418;47.536;19.074;2022-10-26T11:44:04;20.73;;;9.40;;
75793;SDS011;64418;47.536;19.074;2022-10-26T11:47:01;17.17;;;9.68;;
75793;SDS011;64418;47.536;19.074;2022-10-26T11:49:53;23.10;;;10.05;;
75793;SDS011;64418;47.536;19.074;2022-10-26T11:52:47;20.85;;;10.02;;
75793;SDS011;64418;47.536;19.074;2022-10-26T11:55:35;17.90;;;9.48;;
75793;SDS011;64418;47.536;19.074;2022-10-26T11:58:23;23.23;;;10.43;;
75793;SDS011;64418;47.536;19.074;2022-10-26T12:01:09;16.50;;;9.38;;
75793;SDS011;64418;47.536;19.074;2022-10-26T12:03:59;19.10;;;9.90;;
75793;SDS011;64418;47.536;19.074;2022-10-26T12:06:51;19.98;;;9.80;;
75793;SDS011;64418;47.536;19.074;2022-10-26T12:09:41;18.70;;;9.57;;
75793;SDS011;64418;47.536;19.074;2022-10-26T12:12:29;18.67;;;11.27;;
75793;SDS011;64418;47.536;19.074;2022-10-26T12:15:24;20.07;;;10.60;;
75793;SDS011;64418;47.536;19.074;2022-10-26T12:18:14;20.33;;;10.77;;
75793;SDS011;64418;47.536;19.074;2022-10-26T12:21:05;22.33;;;10.40;;
75793;SDS011;64418;47.536;19.074;2022-10-26T12:23:55;20.08;;;10.93;;
75793;SDS011;64418;47.536;19.074;2022-10-26T12:26:46;23.58;;;11.48;;
75793;SDS011;64418;47.536;19.074;2022-10-26T12:29:44;21.03;;;11.10;;
75793;SDS011;64418;47.536;19.074;2022-10-26T12:35:41;19.92;;;11.38;;
75793;SDS011;64418;47.536;19.074;2022-10-26T12:41:42;19.95;;;11.02;;
75793;SDS011;64418;47.536;19.074;2022-10-26T12:44:39;21.87;;;11.23;;
75793;SDS011;64418;47.536;19.074;2022-10-26T12:48:01;21.27;;;10.43;;
75793;SDS011;64418;47.536;19.074;2022-10-26T12:50:47;16.17;;;9.82;;
75793;SDS011;64418;47.536;19.074;2022-10-26T12:53:32;21.25;;;10.63;;
75793;SDS011;64418;47.536;19.074;2022-10-26T12:56:17;19.75;;;10.90;;
75793;SDS011;64418;47.536;19.074;2022-10-26T12:59:12;24.83;;;11.07;;
75793;SDS011;64418;47.536;19.074;2022-10-26T13:02:18;20.67;;;10.60;;
75793;SDS011;64418;47.536;19.074;2022-10-26T13:05:25;23.03;;;11.73;;
75793;SDS011;64418;47.536;19.074;2022-10-26T13:08:18;23.87;;;11.50;;
75793;SDS011;64418;47.536;19.074;2022-10-26T13:11:04;21.70;;;11.02;;
75793;SDS011;64418;47.536;19.074;2022-10-26T13:13:57;23.05;;;11.77;;
75793;SDS011;64418;47.536;19.074;2022-10-26T13:16:46;20.30;;;11.10;;
75793;SDS011;64418;47.536;19.074;2022-10-26T13:19:31;23.50;;;12.07;;
75793;SDS011;64418;47.536;19.074;2022-10-26T13:22:24;23.85;;;11.43;;
75793;SDS011;64418;47.536;19.074;2022-10-26T13:25:15;20.40;;;11.93;;
75793;SDS011;64418;47.536;19.074;2022-10-26T13:28:05;23.10;;;11.35;;
75793;SDS011;64418;47.536;19.074;2022-10-26T13:31:13;23.83;;;11.27;;
75793;SDS011;64418;47.536;19.074;2022-10-26T13:34:23;22.87;;;10.97;;
75793;SDS011;64418;47.536;19.074;2022-10-26T13:37:17;24.58;;;11.25;;
75793;SDS011;64418;47.536;19.074;2022-10-26T13:40:04;21.98;;;10.85;;
75793;SDS011;64418;47.536;19.074;2022-10-26T13:42:57;23.02;;;11.27;;
75793;SDS011;64418;47.536;19.074;2022-10-26T13:45:47;23.42;;;11.50;;
75793;SDS011;64418;47.536;19.074;2022-10-26T13:48:38;18.80;;;10.33;;
75793;SDS011;64418;47.536;19.074;2022-10-26T13:51:31;20.12;;;10.52;;
75793;SDS011;64418;47.536;19.074;2022-10-26T13:54:25;23.42;;;10.15;;
75793;SDS011;64418;47.536;19.074;2022-10-26T13:57:16;20.02;;;10.65;;
75793;SDS011;64418;47.536;19.074;2022-10-26T14:00:07;20.65;;;10.63;;
75793;SDS011;64418;47.536;19.074;2022-10-26T14:02:58;23.00;;;10.50;;
75793;SDS011;64418;47.536;19.074;2022-10-26T14:05:56;21.03;;;11.13;;
75793;SDS011;64418;47.536;19.074;2022-10-26T14:08:41;24.90;;;10.85;;
75793;SDS011;64418;47.536;19.074;2022-10-26T14:11:32;21.10;;;11.07;;
75793;SDS011;64418;47.536;19.074;2022-10-26T14:14:19;22.25;;;10.88;;
75793;SDS011;64418;47.536;19.074;2022-10-26T14:17:13;22.08;;;10.82;;
75793;SDS011;64418;47.536;19.074;2022-10-26T14:20:02;18.00;;;10.37;;
75793;SDS011;64418;47.536;19.074;2022-10-26T14:22:51;21.55;;;10.93;;
75793;SDS011;64418;47.536;19.074;2022-10-26T14:25:35;21.87;;;11.23;;
75793;SDS011;64418;47.536;19.074;2022-10-26T14:28:23;21.23;;;10.93;;
75793;SDS011;64418;47.536;19.074;2022-10-26T14:31:12;19.92;;;11.40;;
75793;SDS011;64418;47.536;19.074;2022-10-26T14:34:03;22.03;;;9.73;;
75793;SDS011;64418;47.536;19.074;2022-10-26T14:36:48;19.92;;;10.38;;
75793;SDS011;64418;47.536;19.074;2022-10-26T14:39:40;19.83;;;11.07;;
75793;SDS011;64418;47.536;19.074;2022-10-26T14:42:28;20.52;;;10.75;;
75793;SDS011;64418;47.536;19.074;2022-10-26T14:45:20;20.40;;;11.50;;
75793;SDS011;64418;47.536;19.074;2022-10-26T14:48:17;19.70;;;10.53;;
75793;SDS011;64418;47.536;19.074;2022-10-26T14:51:07;25.52;;;13.10;;
75793;SDS011;64418;47.536;19.074;2022-10-26T14:53:55;21.52;;;11.12;;
75793;SDS011;64418;47.536;19.074;2022-10-26T14:56:43;18.83;;;10.38;;
75793;SDS011;64418;47.536;19.074;2022-10-26T14:59:30;22.58;;;11.48;;
75793;SDS011;64418;47.536;19.074;2022-10-26T15:02:15;21.23;;;10.77;;
75793;SDS011;64418;47.536;19.074;2022-10-26T15:05:03;20.33;;;10.10;;
75793;SDS011;64418;47.536;19.074;2022-10-26T15:08:01;23.17;;;11.43;;
75793;SDS011;64418;47.536;19.074;2022-10-26T15:11:08;20.55;;;11.15;;
75793;SDS011;64418;47.536;19.074;2022-10-26T15:13:57;22.17;;;11.43;;
75793;SDS011;64418;47.536;19.074;2022-10-26T15:16:48;22.23;;;11.12;;
75793;SDS011;64418;47.536;19.074;2022-10-26T15:19:35;18.47;;;10.57;;
75793;SDS011;64418;47.536;19.074;2022-10-26T15:22:21;23.38;;;10.48;;
75793;SDS011;64418;47.536;19.074;2022-10-26T15:25:14;22.52;;;11.10;;
75793;SDS011;64418;47.536;19.074;2022-10-26T15:28:07;21.83;;;10.90;;
75793;SDS011;64418;47.536;19.074;2022-10-26T15:31:02;24.12;;;11.57;;
75793;SDS011;64418;47.536;19.074;2022-10-26T15:36:55;25.00;;;11.12;;
75793;SDS011;64418;47.536;19.074;2022-10-26T15:39:48;21.92;;;10.23;;
75793;SDS011;64418;47.536;19.074;2022-10-26T15:42:36;20.58;;;11.50;;
75793;SDS011;64418;47.536;19.074;2022-10-26T15:45:22;22.80;;;10.48;;
75793;SDS011;64418;47.536;19.074;2022-10-26T15:48:17;20.27;;;10.53;;
75793;SDS011;64418;47.536;19.074;2022-10-26T15:51:09;17.07;;;9.67;;
75793;SDS011;64418;47.536;19.074;2022-10-26T15:53:56;19.95;;;10.82;;
75793;SDS011;64418;47.536;19.074;2022-10-26T15:56:41;24.27;;;11.12;;
75793;SDS011;64418;47.536;19.074;2022-10-26T15:59:27;21.75;;;11.73;;
75793;SDS011;64418;47.536;19.074;2022-10-26T16:02:12;19.65;;;10.43;;
75793;SDS011;64418;47.536;19.074;2022-10-26T16:04:58;29.43;;;14.40;;
75793;SDS011;64418;47.536;19.074;2022-10-26T16:07:43;28.40;;;16.95;;
75793;SDS011;64418;47.536;19.074;2022-10-26T16:10:30;34.13;;;19.58;;
75793;SDS011;64418;47.536;19.074;2022-10-26T16:13:19;30.12;;;15.25;;
75793;SDS011;64418;47.536;19.074;2022-10-26T16:16:03;25.98;;;14.00;;
75793;SDS011;64418;47.536;19.074;2022-10-26T16:18:55;25.83;;;13.83;;
75793;SDS011;64418;47.536;19.074;2022-10-26T16:21:44;29.37;;;15.80;;
75793;SDS011;64418;47.536;19.074;2022-10-26T16:24:29;22.60;;;12.73;;
75793;SDS011;64418;47.536;19.074;2022-10-26T16:27:13;26.62;;;12.43;;
75793;SDS011;64418;47.536;19.074;2022-10-26T16:29:39;20.83;;;11.07;;
75793;SDS011;64418;47.536;19.074;2022-10-26T16:32:07;23.23;;;12.48;;
75793;SDS011;64418;47.536;19.074;2022-10-26T16:34:33;23.27;;;11.88;;
75793;SDS011;64418;47.536;19.074;2022-10-26T16:37:03;24.87;;;11.90;;
75793;SDS011;64418;47.536;19.074;2022-10-26T16:39:29;24.47;;;12.00;;
75793;SDS011;64418;47.536;19.074;2022-10-26T16:41:55;22.60;;;11.70;;
75793;SDS011;64418;47.536;19.074;2022-10-26T16:44:23;27.90;;;12.85;;
75793;SDS011;64418;47.536;19.074;2022-10-26T16:46:49;22.33;;;11.97;;